Time;durP1;ratioP1;P1;durP2;ratioP2;P2;SDS_P1;SDS_P2;PMS_P1;PMS_P2;Temp;Humidity;BMP_temperature;BMP_pressure;BME280_temperature;BME280_humidity;BME280_pressure;Samples;Min_cycle;Max_cycle;Signal;HPM_P1;HPM_P2
2022/08/02 00:01:27;;;;;;;1.70;1.30;;;;;;;20.85;36.82;93718.63;5074017;28;20158;-78
2022/08/02 00:03:53;;;;;;;2.78;1.40;;;;;;;20.98;36.44;93738.00;5074203;28;20093;-77
2022/08/02 00:06:18;;;;;;;1.25;1.15;;;;;;;21.12;36.75;93729.94;5077187;28;20417;-79
2022/08/02 00:08:44;;;;;;;1.27;1.10;;;;;;;21.08;36.41;93721.03;5073652;28;20047;-77
2022/08/02 00:11:09;;;;;;;1.45;1.35;;;;;;;21.15;36.53;93729.19;5074921;28;20028;-78
2022/08/02 00:13:34;;;;;;;1.95;1.30;;;;;;;21.16;36.65;93748.88;5075870;28;20028;-78
2022/08/02 00:16:00;;;;;;;1.85;1.30;;;;;;;21.16;36.61;93738.84;5073791;28;20024;-79
2022/08/02 00:18:25;;;;;;;1.40;1.30;;;;;;;21.18;36.62;93735.75;5074107;28;20032;-77
2022/08/02 00:20:51;;;;;;;1.15;1.05;;;;;;;21.08;36.68;93710.22;5073808;28;20056;-79
2022/08/02 00:23:16;;;;;;;1.85;1.40;;;;;;;20.92;36.52;93686.22;5076732;28;20558;-79
2022/08/02 00:25:42;;;;;;;2.65;1.27;;;;;;;21.01;36.75;93726.44;5075054;28;20579;-79
2022/08/02 00:28:07;;;;;;;2.92;1.30;;;;;;;21.04;36.70;93722.97;5082525;28;20484;-79
2022/08/02 00:30:32;;;;;;;3.05;1.40;;;;;;;21.10;37.15;93724.16;5074571;28;20032;-78
2022/08/02 00:33:01;;;;;;;1.48;1.38;;;;;;;20.92;36.90;93734.13;5073695;28;20476;-78
2022/08/02 00:35:27;;;;;;;2.85;1.58;;;;;;;20.92;36.79;93717.91;5076918;28;20027;-78
2022/08/02 00:37:52;;;;;;;2.00;1.40;;;;;;;21.12;36.63;93719.09;5075303;28;20020;-79
2022/08/02 00:40:22;;;;;;;2.15;1.50;;;;;;;21.09;36.75;93733.41;5073249;28;20342;-79
2022/08/02 00:43:06;;;;;;;1.67;1.40;;;;;;;20.69;37.01;93720.06;5074436;28;20028;-78
2022/08/02 00:45:37;;;;;;;2.63;1.52;;;;;;;20.74;36.68;93727.81;5075049;28;20766;-79
2022/08/02 00:48:04;;;;;;;1.63;1.50;;;;;;;20.75;36.56;93708.53;5073790;28;20066;-79
2022/08/02 00:50:30;;;;;;;2.90;1.35;;;;;;;21.01;36.03;93723.72;5074251;28;20071;-78
2022/08/02 00:52:57;;;;;;;1.50;1.13;;;;;;;20.75;36.28;93724.75;5075177;28;20031;-77
2022/08/02 00:55:23;;;;;;;1.45;1.33;;;;;;;20.53;36.72;93723.84;5071745;28;20062;-78
2022/08/02 00:57:48;;;;;;;1.58;1.08;;;;;;;20.28;36.21;93712.16;5073537;28;20032;-78
2022/08/02 01:00:14;;;;;;;1.77;1.40;;;;;;;20.45;36.58;93724.97;5074927;28;20105;-77
2022/08/02 01:02:40;;;;;;;1.60;1.45;;;;;;;20.22;36.75;93712.88;5073645;28;20022;-77
2022/08/02 01:05:06;;;;;;;2.33;1.42;;;;;;;20.45;36.88;93718.78;5076100;28;20038;-78
2022/08/02 01:07:32;;;;;;;2.00;1.63;;;;;;;20.49;36.36;93716.88;5073551;28;20040;-78
2022/08/02 01:09:59;;;;;;;3.65;2.17;;;;;;;20.31;36.09;93697.88;5074859;28;20125;-77
2022/08/02 01:12:24;;;;;;;4.65;2.10;;;;;;;20.39;36.35;93715.66;5076153;28;20028;-78
2022/08/02 01:14:51;;;;;;;2.50;1.90;;;;;;;20.42;36.48;93703.34;5075044;28;20039;-79
2022/08/02 01:17:31;;;;;;;3.50;1.63;;;;;;;20.47;36.58;93714.56;5072864;28;20024;-79
2022/08/02 01:20:03;;;;;;;2.33;2.08;;;;;;;20.49;36.41;93690.66;5070555;28;20346;-78
2022/08/02 01:22:42;;;;;;;1.50;1.35;;;;;;;20.10;36.44;93681.50;5073644;28;20038;-78
2022/08/02 01:25:10;;;;;;;4.40;2.42;;;;;;;20.24;37.19;93705.91;5073273;28;20105;-78
2022/08/02 01:27:49;;;;;;;2.67;2.00;;;;;;;20.31;36.30;93700.59;5071465;28;20062;-78
2022/08/02 01:30:16;;;;;;;2.35;1.60;;;;;;;20.26;36.24;93689.34;5071212;28;20028;-78
2022/08/02 01:32:45;;;;;;;1.42;1.30;;;;;;;20.54;36.10;93692.22;5082905;28;20028;-77
2022/08/02 01:35:16;;;;;;;2.50;1.50;;;;;;;20.40;35.97;93673.22;5072678;28;20035;-77
2022/08/02 01:37:50;;;;;;;3.00;1.85;;;;;;;20.80;35.77;93707.38;5072543;28;20588;-79
2022/08/02 01:40:28;;;;;;;1.58;1.20;;;;;;;20.94;35.49;93715.56;5075045;28;20038;-78
2022/08/02 01:42:56;;;;;;;1.40;1.30;;;;;;;20.80;37.32;93696.56;5071924;28;20041;-78
2022/08/02 01:45:24;;;;;;;2.38;1.95;;;;;;;20.99;38.78;93704.41;5073363;28;20024;-78
2022/08/02 01:47:51;;;;;;;2.20;1.85;;;;;;;20.88;40.32;93700.88;5074972;28;20024;-80
2022/08/02 01:50:20;;;;;;;2.45;2.20;;;;;;;20.97;40.61;93714.84;5071890;28;20752;-79
2022/08/02 01:52:52;;;;;;;2.08;1.52;;;;;;;20.66;41.10;93689.19;5072992;28;20032;-79
2022/08/02 01:55:40;;;;;;;3.03;1.65;;;;;;;20.76;41.45;93717.41;5071831;28;20115;-77
2022/08/02 01:58:06;;;;;;;5.00;2.08;;;;;;;20.74;41.48;93722.41;5071425;28;20031;-79
2022/08/02 02:00:38;;;;;;;2.33;1.60;;;;;;;20.67;41.89;93728.56;5074441;28;20085;-78
2022/08/02 02:03:06;;;;;;;2.00;1.70;;;;;;;20.66;42.12;93726.25;5069546;28;20024;-78
2022/08/02 02:05:34;;;;;;;1.77;1.65;;;;;;;20.55;42.11;93718.06;5071476;28;20020;-79
2022/08/02 02:08:02;;;;;;;2.58;1.55;;;;;;;20.67;41.73;93722.41;5073397;28;20023;-79
2022/08/02 02:10:30;;;;;;;5.53;2.78;;;;;;;20.54;41.96;93721.94;5072221;28;20036;-79
2022/08/02 02:13:01;;;;;;;2.60;1.88;;;;;;;20.54;42.12;93725.41;5073435;28;20024;-78
2022/08/02 02:15:28;;;;;;;3.67;2.38;;;;;;;20.49;42.43;93735.78;5073838;28;20024;-78
2022/08/02 02:17:56;;;;;;;2.22;1.77;;;;;;;20.35;42.73;93722.97;5072324;28;20036;-77
2022/08/02 02:20:22;;;;;;;2.13;1.67;;;;;;;20.36;42.74;93734.56;5071342;28;20450;-80
2022/08/02 02:22:48;;;;;;;2.70;1.88;;;;;;;20.17;42.79;93716.69;5072082;28;20029;-79
2022/08/02 02:25:17;;;;;;;2.35;1.65;;;;;;;20.14;43.17;93723.56;5071272;28;20020;-77
2022/08/02 02:28:02;;;;;;;1.83;1.50;;;;;;;19.96;43.86;93727.31;5073519;28;20107;-78
2022/08/02 02:30:30;;;;;;;2.63;1.73;;;;;;;19.72;44.17;93707.06;5072993;28;20040;-78
2022/08/02 02:32:59;;;;;;;2.30;1.80;;;;;;;19.81;44.24;93733.72;5072642;28;20051;-78
2022/08/02 02:35:30;;;;;;;2.15;1.67;;;;;;;19.72;44.32;93713.25;5071821;28;20611;-78
2022/08/02 02:38:01;;;;;;;2.03;1.77;;;;;;;19.55;44.66;93724.66;5075398;28;20115;-79
2022/08/02 02:40:28;;;;;;;3.53;1.98;;;;;;;19.59;44.96;93722.78;5076388;28;20397;-78
2022/08/02 02:42:55;;;;;;;3.70;1.90;;;;;;;19.65;44.82;93726.66;5076445;28;20059;-78
2022/08/02 02:45:22;;;;;;;3.17;2.05;;;;;;;19.61;44.85;93728.56;5075616;28;20038;-79
2022/08/02 02:47:49;;;;;;;2.35;1.65;;;;;;;19.28;45.20;93693.53;5075322;28;20492;-77
2022/08/02 02:50:18;;;;;;;3.80;1.70;;;;;;;19.26;45.38;93712.03;5075610;28;20024;-76
2022/08/02 02:52:46;;;;;;;2.47;1.88;;;;;;;19.18;45.44;93713.06;5076348;28;20108;-77
2022/08/02 02:55:12;;;;;;;7.72;2.35;;;;;;;19.12;45.22;93701.84;5073284;28;20028;-79
2022/08/02 02:57:39;;;;;;;2.28;1.77;;;;;;;19.22;44.71;93719.28;5075744;28;20930;-78
2022/08/02 03:00:08;;;;;;;1.70;1.40;;;;;;;19.21;44.46;93704.25;5075444;28;20933;-79
2022/08/02 03:02:36;;;;;;;1.95;1.60;;;;;;;19.16;44.77;93699.97;5074889;28;20500;-77
2022/08/02 03:05:06;;;;;;;2.35;2.00;;;;;;;18.95;45.13;93710.53;5074232;28;20189;-78
2022/08/02 03:07:33;;;;;;;2.05;1.65;;;;;;;18.95;45.34;93723.22;5075435;28;20082;-80
2022/08/02 03:10:01;;;;;;;1.70;1.48;;;;;;;19.03;45.49;93725.63;5076912;28;20027;-79
2022/08/02 03:12:27;;;;;;;1.95;1.60;;;;;;;18.37;45.46;93630.16;5077275;28;20024;-78
2022/08/02 03:14:53;;;;;;;3.95;1.80;;;;;;;18.93;45.40;93717.41;5076883;28;20029;-79
2022/08/02 03:17:19;;;;;;;3.25;1.63;;;;;;;18.81;45.86;93718.44;5076065;28;20028;-79
2022/08/02 03:19:44;;;;;;;2.92;1.90;;;;;;;18.82;46.27;93726.13;5076130;28;20044;-78
2022/08/02 03:22:10;;;;;;;2.53;1.95;;;;;;;18.73;45.55;93704.09;5074986;28;20028;-80
2022/08/02 03:24:36;;;;;;;2.10;1.90;;;;;;;18.81;45.12;93710.38;5075476;28;20062;-78
2022/08/02 03:27:02;;;;;;;3.17;1.95;;;;;;;18.75;45.78;93727.97;5075624;28;20111;-78
2022/08/02 03:29:27;;;;;;;2.88;2.20;;;;;;;18.80;45.80;93728.44;5074753;28;20111;-79
2022/08/02 03:31:53;;;;;;;2.75;2.20;;;;;;;18.79;45.56;93732.28;5074616;28;20028;-80
2022/08/02 03:34:20;;;;;;;2.15;1.70;;;;;;;18.55;45.82;93689.63;5076493;28;20468;-77
2022/08/02 03:36:47;;;;;;;2.42;2.20;;;;;;;18.63;46.14;93723.56;5075328;28;20024;-77
2022/08/02 03:39:14;;;;;;;2.28;2.08;;;;;;;18.75;45.77;93726.06;5075765;28;20034;-77
2022/08/02 03:41:40;;;;;;;3.60;1.75;;;;;;;18.78;45.94;93736.09;5073734;28;20032;-78
2022/08/02 03:44:06;;;;;;;2.30;2.03;;;;;;;18.81;46.24;93731.91;5077375;28;20048;-77
2022/08/02 03:46:33;;;;;;;2.28;2.08;;;;;;;18.86;45.82;93732.38;5074807;28;20120;-78
2022/08/02 03:48:59;;;;;;;2.10;1.90;;;;;;;18.86;46.01;93732.38;5075067;28;20036;-77
2022/08/02 03:51:25;;;;;;;2.35;2.13;;;;;;;18.89;46.19;93738.94;5073017;28;20055;-78
2022/08/02 03:53:51;;;;;;;11.38;2.28;;;;;;;18.80;46.04;93725.75;5076934;28;20036;-78
2022/08/02 03:56:17;;;;;;;2.28;1.90;;;;;;;18.61;46.34;93692.75;5075289;28;20059;-79
2022/08/02 03:58:43;;;;;;;2.67;1.90;;;;;;;18.87;46.36;93739.28;5074230;28;20106;-78
2022/08/02 04:01:08;;;;;;;3.03;1.85;;;;;;;19.00;46.21;93752.53;5074867;28;20557;-78
2022/08/02 04:03:33;;;;;;;2.55;2.10;;;;;;;19.04;46.19;93753.34;5075411;28;20016;-78
2022/08/02 04:05:59;;;;;;;2.35;2.13;;;;;;;19.15;45.83;93759.66;5083614;28;20032;-79
2022/08/02 04:08:25;;;;;;;3.95;2.38;;;;;;;19.18;45.83;93761.59;5082902;28;20038;-79
2022/08/02 04:13:36;;;;;;;2.38;2.15;;;;;;;19.17;45.50;93752.72;5073436;28;20086;-79
2022/08/02 04:16:27;;;;;;;2.75;2.25;;;;;;;19.36;45.25;93775.28;5074080;28;20120;-77
2022/08/02 04:18:56;;;;;;;4.47;2.08;;;;;;;19.40;45.30;93768.78;5074180;28;20064;-77
2022/08/02 04:21:25;;;;;;;4.50;2.40;;;;;;;19.44;45.18;93761.50;5074958;28;20024;-78
2022/08/02 04:23:52;;;;;;;2.70;2.28;;;;;;;19.39;45.35;93759.13;5076018;28;20035;-79
2022/08/02 04:26:18;;;;;;;5.10;3.33;;;;;;;19.58;44.93;93771.69;5073336;28;20606;-77
2022/08/02 04:28:45;;;;;;;6.05;2.42;;;;;;;19.54;44.49;93755.47;5073481;28;20021;-77
2022/08/02 04:31:10;;;;;;;2.58;2.38;;;;;;;19.63;45.26;93764.03;5074744;28;20032;-79
2022/08/02 04:33:37;;;;;;;2.25;2.00;;;;;;;19.70;44.98;93768.72;5073791;28;20084;-79
2022/08/02 04:36:05;;;;;;;2.95;2.63;;;;;;;19.78;44.39;93774.97;5072022;28;20097;-78
2022/08/02 04:38:30;;;;;;;3.08;2.67;;;;;;;19.83;44.43;93770.00;5073167;28;20036;-78
2022/08/02 04:40:56;;;;;;;4.50;2.53;;;;;;;19.74;44.83;93773.00;5077441;28;20024;-78
2022/08/02 04:43:22;;;;;;;3.30;2.65;;;;;;;19.79;45.39;93771.13;5075015;28;20020;-78
2022/08/02 04:45:50;;;;;;;3.95;2.35;;;;;;;19.88;45.10;93769.66;5073653;28;20032;-79
2022/08/02 04:48:15;;;;;;;3.08;2.38;;;;;;;;;;5073148;28;20025;-79
2022/08/02 04:50:41;;;;;;;3.50;2.50;;;;;;;19.56;43.97;93710.00;5075327;28;20081;-79
2022/08/02 04:53:06;;;;;;;4.00;2.97;;;;;;;19.96;44.53;93757.00;5073502;28;20955;-78
2022/08/02 04:55:32;;;;;;;4.88;2.53;;;;;;;19.90;44.87;93763.88;5072281;28;20077;-77
2022/08/02 04:57:59;;;;;;;3.50;2.58;;;;;;;;;;5072136;28;20063;-78
2022/08/02 05:00:27;;;;;;;3.58;2.35;;;;;;;19.88;44.57;93758.09;5073085;28;20028;-78
2022/08/02 05:02:53;;;;;;;3.05;2.35;;;;;;;19.53;44.80;93753.91;5074258;28;20029;-78
2022/08/02 05:05:19;;;;;;;3.63;2.47;;;;;;;19.91;45.04;93778.94;5073772;28;20401;-77
2022/08/02 05:07:44;;;;;;;3.42;2.35;;;;;;;19.97;45.56;93766.66;5073837;28;20483;-77
2022/08/02 05:10:09;;;;;;;4.32;2.95;;;;;;;20.06;44.62;93748.19;5073603;28;20032;-78
2022/08/02 05:12:37;;;;;;;4.72;3.15;;;;;;;20.33;44.59;93779.31;5073718;28;20565;-78
2022/08/02 05:15:03;;;;;;;4.55;3.28;;;;;;;20.27;44.67;93764.59;5072742;28;20051;-77
2022/08/02 05:17:28;;;;;;;3.67;2.60;;;;;;;20.14;44.35;93750.56;5074780;28;20036;-76
2022/08/02 05:19:53;;;;;;;10.65;2.78;;;;;;;20.38;43.72;93762.75;5075042;28;20421;-77
2022/08/02 05:22:19;;;;;;;5.43;3.03;;;;;;;20.59;43.92;93784.47;5072176;28;20035;-76
2022/08/02 05:24:44;;;;;;;4.80;2.50;;;;;;;20.61;44.23;93778.72;5073674;28;20063;-78
2022/08/02 05:27:09;;;;;;;3.90;2.65;;;;;;;20.74;43.39;93771.84;5073194;28;20537;-77
2022/08/02 05:29:35;;;;;;;8.38;3.15;;;;;;;20.66;43.64;93785.69;5073152;28;20020;-77
2022/08/02 05:32:00;;;;;;;3.05;2.75;;;;;;;20.57;41.50;93786.81;5073921;28;20543;-78
2022/08/02 05:34:26;;;;;;;5.90;2.97;;;;;;;20.25;42.66;93788.50;5074968;28;20035;-77
2022/08/02 05:36:51;;;;;;;3.53;2.80;;;;;;;20.03;42.61;93797.56;5072775;28;20035;-78
2022/08/02 05:39:16;;;;;;;4.13;2.58;;;;;;;19.74;42.86;93781.09;5073895;28;20043;-78
2022/08/02 05:41:42;;;;;;;2.65;2.22;;;;;;;19.52;42.89;93787.44;5075197;28;20032;-77
2022/08/02 05:44:07;;;;;;;2.83;2.05;;;;;;;19.51;43.19;93799.34;5072725;28;20024;-76
2022/08/02 05:46:32;;;;;;;3.58;2.33;;;;;;;19.56;42.93;93785.53;5072238;28;20034;-76
2022/08/02 05:49:00;;;;;;;3.30;2.13;;;;;;;19.35;42.68;93801.47;5074712;28;20386;-77
2022/08/02 05:51:44;;;;;;;8.10;2.70;;;;;;;19.51;43.13;93798.56;5073224;28;20024;-76
2022/08/02 05:54:18;;;;;;;4.27;2.17;;;;;;;19.44;42.76;93799.25;5072608;28;20039;-77
2022/08/02 05:57:03;;;;;;;2.10;1.70;;;;;;;19.79;41.97;93800.81;5072857;28;20148;-78
2022/08/02 05:59:38;;;;;;;2.25;1.58;;;;;;;19.78;41.67;93804.66;5074655;28;20029;-77
2022/08/02 06:02:28;;;;;;;2.10;1.63;;;;;;;19.75;41.91;93793.44;5072958;28;20017;-78
2022/08/02 06:05:12;;;;;;;2.25;1.73;;;;;;;20.17;41.42;93811.19;5070839;28;20063;-79
2022/08/02 06:07:40;;;;;;;2.20;1.55;;;;;;;20.03;40.66;93813.75;5081086;28;20033;-79
2022/08/02 06:10:07;;;;;;;2.63;1.50;;;;;;;20.15;40.17;93816.16;5071160;28;20039;-77
2022/08/02 06:12:40;;;;;;;2.63;1.40;;;;;;;20.16;39.97;93817.72;5078026;28;20020;-78
2022/08/02 06:15:06;;;;;;;1.75;1.40;;;;;;;20.01;40.25;93816.81;5075565;28;20037;-77
2022/08/02 06:17:31;;;;;;;1.30;1.10;;;;;;;19.63;40.30;93774.81;5076179;28;20043;-76
2022/08/02 06:19:59;;;;;;;2.15;1.30;;;;;;;19.92;40.62;93818.25;5075453;28;20040;-78
2022/08/02 06:22:26;;;;;;;1.25;1.15;;;;;;;19.71;39.61;93830.41;5075317;28;20369;-79
2022/08/02 06:24:53;;;;;;;4.82;1.10;;;;;;;20.00;40.44;93828.75;5077614;28;20682;-77
2022/08/02 06:27:19;;;;;;;2.83;1.52;;;;;;;19.65;40.22;93818.38;5077596;28;20397;-78
2022/08/02 06:29:47;;;;;;;2.00;1.42;;;;;;;19.88;39.91;93820.94;5075654;28;20035;-77
2022/08/02 06:32:17;;;;;;;4.22;1.35;;;;;;;20.02;40.45;93831.09;5076983;28;20071;-78
2022/08/02 06:34:42;;;;;;;2.13;1.38;;;;;;;20.12;39.85;93833.88;5074597;28;20114;-77
2022/08/02 06:37:33;;;;;;;0.82;0.82;;;;;;;19.88;39.56;93823.63;5076084;28;20083;-77
2022/08/02 06:40:28;;;;;;;1.45;1.20;;;;;;;20.13;39.86;93850.88;5064449;28;20063;-79
2022/08/02 06:43:04;;;;;;;1.83;1.20;;;;;;;20.24;39.75;93851.75;5072127;28;20075;-79
2022/08/02 06:45:32;;;;;;;1.83;1.30;;;;;;;20.30;39.74;93846.78;5077861;28;20512;-79
2022/08/02 06:47:57;;;;;;;1.35;0.98;;;;;;;20.27;39.74;93842.13;5077690;28;20038;-78
2022/08/02 06:50:22;;;;;;;2.38;1.10;;;;;;;20.44;39.62;93834.16;5076774;28;20441;-78
2022/08/02 06:52:48;;;;;;;2.42;1.35;;;;;;;20.44;39.94;93839.56;5075332;28;20421;-79
2022/08/02 06:55:13;;;;;;;1.92;1.45;;;;;;;20.31;40.03;93814.00;5075527;28;20469;-77
2022/08/02 06:57:39;;;;;;;1.33;1.23;;;;;;;20.49;39.77;93812.22;5075265;28;20992;-78
2022/08/02 07:00:08;;;;;;;2.15;1.33;;;;;;;20.68;39.67;93829.34;5076727;28;20024;-79
2022/08/02 07:02:35;;;;;;;1.65;1.40;;;;;;;20.69;39.97;93844.38;5076573;28;20518;-79
2022/08/02 07:05:02;;;;;;;1.23;1.13;;;;;;;20.67;39.75;93844.78;5076338;28;20043;-78
2022/08/02 07:07:27;;;;;;;1.77;1.33;;;;;;;20.69;40.43;93823.53;5076625;28;20147;-77
2022/08/02 07:09:53;;;;;;;3.47;1.20;;;;;;;20.43;40.72;93818.34;5076115;28;20135;-80
2022/08/02 07:12:18;;;;;;;1.63;1.20;;;;;;;20.65;39.73;93820.03;5074953;28;20029;-78
2022/08/02 07:14:44;;;;;;;1.20;1.10;;;;;;;20.61;40.76;93835.44;5074525;28;20462;-78
2022/08/02 07:17:09;;;;;;;1.95;1.27;;;;;;;20.43;40.53;93824.53;5075186;28;20043;-77
2022/08/02 07:19:35;;;;;;;4.25;1.20;;;;;;;20.82;40.02;93837.53;5073226;28;20079;-77
2022/08/02 07:22:00;;;;;;;1.38;0.98;;;;;;;20.80;40.32;93850.63;5076006;28;20089;-78
2022/08/02 07:24:26;;;;;;;2.17;1.15;;;;;;;20.56;40.66;93841.22;5076045;28;20347;-78
2022/08/02 07:26:51;;;;;;;41.08;4.07;;;;;;;20.71;40.35;93831.28;5074414;28;20486;-77
2022/08/02 07:29:17;;;;;;;1.73;1.30;;;;;;;20.71;40.51;93839.38;5075279;28;20047;-77
2022/08/02 07:31:42;;;;;;;1.85;0.93;;;;;;;20.70;40.34;93814.28;5076150;28;20024;-78
2022/08/02 07:34:07;;;;;;;1.80;1.25;;;;;;;20.87;41.50;93829.09;5075589;28;20576;-78
2022/08/02 07:36:33;;;;;;;1.15;0.90;;;;;;;20.94;40.27;93821.00;5075449;28;20032;-77
2022/08/02 07:39:00;;;;;;;0.80;0.80;;;;;;;21.02;40.22;93836.13;5075285;28;20027;-78
2022/08/02 07:41:25;;;;;;;2.60;1.25;;;;;;;20.91;40.01;93821.78;5074432;28;20056;-79
2022/08/02 07:43:51;;;;;;;1.55;0.90;;;;;;;20.94;40.65;93842.63;5072486;28;20037;-78
2022/08/02 07:46:16;;;;;;;1.00;0.88;;;;;;;20.90;40.91;93828.31;5075239;28;20440;-78
2022/08/02 07:48:42;;;;;;;1.20;0.90;;;;;;;20.79;40.02;93833.63;5078160;28;20027;-78
2022/08/02 07:51:07;;;;;;;0.90;0.80;;;;;;;20.71;40.03;93823.16;5074303;28;20055;-78
2022/08/02 07:53:33;;;;;;;2.97;0.90;;;;;;;20.66;40.27;93781.06;5074670;28;20635;-79
2022/08/02 07:56:00;;;;;;;0.90;0.73;;;;;;;21.03;40.39;93826.84;5073929;28;20107;-78
2022/08/02 07:58:25;;;;;;;1.90;0.90;;;;;;;20.90;40.10;93825.63;5082406;28;20601;-77
2022/08/02 08:00:50;;;;;;;1.88;1.33;;;;;;;20.85;40.98;93815.13;5074418;28;20028;-79
2022/08/02 08:03:16;;;;;;;1.10;0.90;;;;;;;20.63;40.56;93808.81;5075016;28;20055;-77
2022/08/02 08:05:41;;;;;;;1.25;1.15;;;;;;;20.60;40.60;93821.16;5075074;28;20029;-78
2022/08/02 08:08:07;;;;;;;1.10;1.00;;;;;;;20.73;40.86;93810.06;5075432;28;20551;-78
2022/08/02 08:10:33;;;;;;;0.70;0.70;;;;;;;20.96;39.90;93810.59;5075901;28;20115;-78
2022/08/02 08:12:59;;;;;;;1.10;0.73;;;;;;;21.14;41.25;93824.97;5076342;28;20102;-78
2022/08/02 08:15:25;;;;;;;1.15;0.80;;;;;;;21.37;39.55;93820.03;5074665;28;20031;-78
2022/08/02 08:17:50;;;;;;;2.58;0.80;;;;;;;21.29;38.75;93799.53;5074754;28;20027;-78
2022/08/02 08:20:16;;;;;;;1.48;1.00;;;;;;;21.49;39.49;93820.88;5073992;28;20453;-79
2022/08/02 08:22:41;;;;;;;1.20;0.90;;;;;;;21.63;39.20;93799.28;5073498;28;20024;-79
2022/08/02 08:25:07;;;;;;;1.10;0.90;;;;;;;22.04;38.88;93824.13;5074054;28;20025;-77
2022/08/02 08:27:32;;;;;;;1.45;0.70;;;;;;;22.10;38.20;93822.56;5075983;28;20132;-78
2022/08/02 08:29:59;;;;;;;1.10;0.85;;;;;;;21.87;37.87;93809.41;5074280;28;20060;-78
2022/08/02 08:32:25;;;;;;;2.30;1.15;;;;;;;21.70;38.75;93810.91;5073917;28;20028;-79
2022/08/02 08:34:51;;;;;;;1.92;0.90;;;;;;;21.78;38.33;93828.72;5073052;28;20035;-77
2022/08/02 08:37:17;;;;;;;2.75;0.85;;;;;;;21.66;38.81;93804.69;5074981;28;20027;-77
2022/08/02 08:39:43;;;;;;;1.70;0.90;;;;;;;21.80;38.64;93809.41;5074258;28;20497;-78
2022/08/02 08:42:08;;;;;;;1.17;0.90;;;;;;;22.06;38.27;93819.84;5075239;28;20046;-79
2022/08/02 08:44:36;;;;;;;1.10;0.93;;;;;;;22.15;37.42;93798.59;5073342;28;20161;-78
2022/08/02 08:47:04;;;;;;;1.63;1.17;;;;;;;22.43;37.41;93813.34;5072261;28;20486;-77
2022/08/02 08:49:50;;;;;;;0.82;0.80;;;;;;;22.63;36.78;93809.06;5074155;28;20082;-78
2022/08/02 08:52:18;;;;;;;0.85;0.75;;;;;;;22.78;37.10;93813.28;5072622;28;20066;-76
2022/08/02 08:54:47;;;;;;;1.50;0.90;;;;;;;22.82;36.88;93797.03;5074531;28;20024;-77
2022/08/02 08:57:13;;;;;;;0.90;0.80;;;;;;;22.91;36.50;93817.19;5074881;28;20024;-78
2022/08/02 08:59:39;;;;;;;1.15;0.80;;;;;;;23.12;36.35;93811.69;5073900;28;20027;-78
2022/08/02 09:02:05;;;;;;;3.38;1.00;;;;;;;22.91;36.03;93779.22;5075763;28;20770;-76
2022/08/02 09:04:31;;;;;;;1.00;0.88;;;;;;;23.30;36.44;93814.34;5071717;28;20430;-75
2022/08/02 09:06:56;;;;;;;1.10;1.00;;;;;;;23.38;35.70;93806.94;5073358;28;20168;-76
2022/08/02 09:09:22;;;;;;;0.98;0.82;;;;;;;23.35;34.94;93818.59;5074862;28;20020;-77
2022/08/02 09:11:48;;;;;;;0.88;0.80;;;;;;;22.99;34.93;93807.84;5073043;28;20410;-77
2022/08/02 09:14:26;;;;;;;0.80;0.80;;;;;;;22.71;36.25;93824.94;5074332;28;21004;-78
2022/08/02 09:16:52;;;;;;;1.02;0.90;;;;;;;22.51;36.89;93810.22;5072285;28;20031;-77
2022/08/02 09:19:18;;;;;;;0.70;0.70;;;;;;;22.62;37.66;93821.84;5071590;28;20045;-77
2022/08/02 09:21:45;;;;;;;0.93;0.90;;;;;;;22.58;36.55;93810.22;5072054;28;20407;-77
2022/08/02 09:24:21;;;;;;;1.20;0.80;;;;;;;22.88;35.74;93812.50;5073363;28;20043;-77
2022/08/02 09:26:49;;;;;;;0.80;0.80;;;;;;;22.99;37.00;93807.84;5073506;28;20020;-76
2022/08/02 09:29:15;;;;;;;1.40;0.80;;;;;;;23.11;36.42;93812.88;5070005;28;20036;-75
2022/08/02 09:31:41;;;;;;;1.55;0.98;;;;;;;23.21;38.69;93805.06;5073176;28;20577;-76
2022/08/02 09:34:07;;;;;;;1.75;0.95;;;;;;;22.95;35.32;93796.25;5071884;28;20070;-77
2022/08/02 09:36:41;;;;;;;0.70;0.70;;;;;;;23.19;36.12;93810.88;5073365;28;20032;-76
2022/08/02 09:39:15;;;;;;;0.60;0.60;;;;;;;23.20;34.80;93806.25;5074313;28;20498;-76
2022/08/02 09:41:42;;;;;;;0.82;0.52;;;;;;;23.31;33.96;93796.91;5073624;28;20037;-76
2022/08/02 09:44:10;;;;;;;1.15;0.60;;;;;;;23.55;32.82;93811.56;5072593;28;20513;-76
2022/08/02 09:46:37;;;;;;;0.70;0.70;;;;;;;23.58;33.58;93805.31;5072688;28;20027;-76
2022/08/02 09:49:13;;;;;;;1.05;0.57;;;;;;;23.64;33.56;93803.75;5071191;28;20028;-77
2022/08/02 09:51:45;;;;;;;0.52;0.52;;;;;;;23.54;32.82;93810.00;5072635;28;20486;-75
2022/08/02 09:54:15;;;;;;;4.20;0.60;;;;;;;23.55;35.78;93800.69;5073100;28;20039;-77
2022/08/02 09:56:49;;;;;;;1.90;0.60;;;;;;;23.46;34.72;93794.91;5080794;28;20107;-76
2022/08/02 09:59:16;;;;;;;0.90;0.60;;;;;;;23.14;34.68;93784.94;5074197;28;20086;-75
2022/08/02 10:01:43;;;;;;;1.38;0.73;;;;;;;23.23;34.95;93789.16;5071321;28;20106;-77
2022/08/02 10:04:11;;;;;;;0.82;0.70;;;;;;;23.39;35.34;93792.22;5073452;28;20024;-78
2022/08/02 10:06:39;;;;;;;0.90;0.80;;;;;;;23.53;34.50;93770.44;5072657;28;20055;-77
2022/08/02 10:09:06;;;;;;;0.80;0.80;;;;;;;23.81;34.35;93797.44;5073039;28;20060;-76
2022/08/02 10:11:34;;;;;;;1.35;0.80;;;;;;;23.64;34.00;93744.03;5071470;28;20074;-76
2022/08/02 10:14:02;;;;;;;0.98;0.73;;;;;;;23.89;34.54;93779.94;5079378;28;20144;-77
2022/08/02 10:16:28;;;;;;;0.70;0.70;;;;;;;24.16;34.37;93792.97;5073056;28;20378;-77
2022/08/02 10:18:55;;;;;;;1.00;1.00;;;;;;;24.11;33.95;93786.00;5073994;28;20587;-76
2022/08/02 10:21:28;;;;;;;1.58;0.70;;;;;;;24.10;35.47;93786.41;5072209;28;20059;-75
2022/08/02 10:24:06;;;;;;;0.80;0.68;;;;;;;24.12;34.20;93773.19;5070956;28;20028;-77
2022/08/02 10:26:33;;;;;;;2.65;0.70;;;;;;;24.19;35.31;93765.78;5072765;28;20478;-77
2022/08/02 10:29:00;;;;;;;0.70;0.70;;;;;;;24.34;34.12;93782.75;5073064;28;20036;-78
2022/08/02 10:31:33;;;;;;;0.55;0.55;;;;;;;24.35;33.60;93781.56;5073056;28;20086;-77
2022/08/02 10:34:02;;;;;;;2.58;0.88;;;;;;;24.43;33.62;93783.06;5073333;28;20025;-77
2022/08/02 10:36:31;;;;;;;0.73;0.70;;;;;;;24.34;33.68;93761.00;5080641;28;20690;-79
2022/08/02 10:38:57;;;;;;;1.10;0.80;;;;;;;24.36;33.17;93756.69;5072322;28;20178;-77
2022/08/02 10:41:42;;;;;;;0.90;0.80;;;;;;;24.58;33.46;93781.75;5070586;28;20465;-77
2022/08/02 10:44:18;;;;;;;0.80;0.80;;;;;;;24.43;33.56;93755.88;5070464;28;20118;-76
2022/08/02 10:46:44;;;;;;;0.63;0.63;;;;;;;24.51;32.71;93773.66;5073903;28;20059;-77
2022/08/02 10:49:17;;;;;;;1.27;0.70;;;;;;;24.60;33.87;93779.38;5073259;28;20461;-77
2022/08/02 10:52:01;;;;;;;1.67;1.02;;;;;;;24.70;35.14;93780.47;5071469;28;20028;-77
2022/08/02 10:54:27;;;;;;;0.70;0.60;;;;;;;24.64;35.44;93782.06;5067653;28;20028;-77
2022/08/02 10:56:55;;;;;;;0.73;0.60;;;;;;;24.52;35.82;93777.16;5074252;28;20122;-78
2022/08/02 10:59:27;;;;;;;1.23;0.70;;;;;;;24.57;34.67;93777.47;5074015;28;20021;-79
2022/08/02 11:02:00;;;;;;;0.93;0.90;;;;;;;24.67;34.05;93773.13;5075771;28;20035;-77
2022/08/02 11:04:46;;;;;;;1.40;0.93;;;;;;;24.94;33.95;93773.25;5076389;28;20032;-77
2022/08/02 11:07:14;;;;;;;1.55;1.00;;;;;;;25.00;33.71;93775.13;5054314;28;20036;-78
2022/08/02 11:09:41;;;;;;;1.23;0.73;;;;;;;25.10;33.61;93766.09;5076350;28;20048;-78
2022/08/02 11:12:08;;;;;;;0.75;0.75;;;;;;;25.06;32.19;93754.47;5074363;28;20036;-76
2022/08/02 11:14:36;;;;;;;0.45;0.43;;;;;;;25.08;32.15;93756.75;5074023;28;20028;-77
2022/08/02 11:17:08;;;;;;;1.83;0.75;;;;;;;25.21;32.17;93771.41;5075087;28;20051;-77
2022/08/02 11:19:54;;;;;;;1.27;0.80;;;;;;;25.12;31.60;93760.25;5075034;28;20048;-77
2022/08/02 11:22:19;;;;;;;0.93;0.70;;;;;;;25.16;32.12;93766.41;5074670;28;20489;-77
2022/08/02 11:24:46;;;;;;;0.60;0.60;;;;;;;25.16;31.96;93774.56;5076807;28;20071;-77
2022/08/02 11:27:19;;;;;;;0.63;0.55;;;;;;;25.16;33.88;93771.84;5076945;28;20147;-77
2022/08/02 11:29:47;;;;;;;0.70;0.60;;;;;;;25.25;34.35;93772.13;5083747;28;20031;-77
2022/08/02 11:32:21;;;;;;;1.00;0.85;;;;;;;25.30;35.00;93768.94;5077049;28;20361;-77
2022/08/02 11:34:49;;;;;;;2.58;0.70;;;;;;;25.38;32.88;93775.88;5082823;28;20115;-76
2022/08/02 11:37:35;;;;;;;1.00;0.70;;;;;;;25.24;32.12;93760.47;5077871;28;20036;-76
2022/08/02 11:40:02;;;;;;;1.20;1.08;;;;;;;25.25;32.30;93772.13;5075039;28;20028;-77
2022/08/02 11:42:32;;;;;;;0.70;0.70;;;;;;;25.20;32.84;93762.47;5074714;28;20032;-76